Time;durP1;ratioP1;P1;durP2;ratioP2;P2;SDS_P1;SDS_P2;PMS_P1;PMS_P2;Temp;Humidity;BMP_temperature;BMP_pressure;BME280_temperature;BME280_humidity;BME280_pressure;Samples;Min_cycle;Max_cycle;Signal;HPM_P1;HPM_P2
2023/03/20 00:02:04;;;;;;;;;;;;;;;;;;5050942;28;20030;-58
2023/03/20 00:04:30;;;;;;;;;;;;;;;;;;5053531;28;19952;-61
2023/03/20 00:06:57;;;;;;;;;;;;;;;;;;5054145;28;19949;-61
2023/03/20 00:09:25;;;;;;;;;;;;;;;;;;5033990;28;19967;-60
2023/03/20 00:11:52;;;;;;;;;;;;;;;;;;5039083;28;19944;-60
2023/03/20 00:14:19;;;;;;;;;;;;;;;;;;5034202;28;20295;-61
2023/03/20 00:16:46;;;;;;;;;;;;;;;;;;5042244;28;20372;-61
2023/03/20 00:19:13;;;;;;;;;;;;;;;;;;5053438;28;19952;-58
2023/03/20 00:21:40;;;;;;;;;;;;;;;;;;5052188;28;19943;-60
2023/03/20 00:24:07;;;;;;;;;;;;;;;;;;5053355;28;20350;-60
2023/03/20 00:26:34;;;;;;;;;;;;;;;;;;5037946;28;19947;-61
2023/03/20 00:29:02;;;;;;;;;;;;;;;;;;5033585;28;20010;-60
2023/03/20 00:31:29;;;;;;;;;;;;;;;;;;5032238;28;19936;-61
2023/03/20 00:33:56;;;;;;;;;;;;;;;;;;5033646;28;19932;-60
2023/03/20 00:36:23;;;;;;;;;;;;;;;;;;5046180;28;20373;-60
2023/03/20 00:38:50;;;;;;;;;;;;;;;;;;5036593;28;19947;-60
2023/03/20 00:41:17;;;;;;;;;;;;;;;;;;5036486;28;19939;-60
2023/03/20 00:43:44;;;;;;;;;;;;;;;;;;5053112;28;19925;-61
2023/03/20 00:46:11;;;;;;;;;;;;;;;;;;5046098;28;19942;-60
2023/03/20 00:48:39;;;;;;;;;;;;;;;;;;5033083;28;20461;-61
2023/03/20 00:51:06;;;;;;;;;;;;;;;;;;5032230;28;19972;-60
2023/03/20 00:53:32;;;;;;;;;;;;;;;;;;5047185;28;19955;-60
2023/03/20 00:55:59;;;;;;;;;;;;;;;;;;5051742;28;20312;-60
2023/03/20 00:58:26;;;;;;;;;;;;;;;;;;5052399;28;19965;-61
2023/03/20 01:00:53;;;;;;;;;;;;;;;;;;5040378;28;19932;-60
2023/03/20 01:03:20;;;;;;;;;;;;;;;;;;5032532;28;20359;-60
2023/03/20 01:05:47;;;;;;;;;;;;;;;;;;5037170;28;19928;-60
2023/03/20 01:08:15;;;;;;;;;;;;;;;;;;5052440;28;19955;-60
2023/03/20 01:10:41;;;;;;;;;;;;;;;;;;5051081;28;19925;-60
2023/03/20 01:13:08;;;;;;;;;;;;;;;;;;5038727;28;19955;-60
2023/03/20 01:15:35;;;;;;;;;;;;;;;;;;5032340;28;19941;-60
2023/03/20 01:18:02;;;;;;;;;;;;;;;;;;5032690;28;19973;-60
2023/03/20 01:20:29;;;;;;;;;;;;;;;;;;5032106;28;19969;-60
2023/03/20 01:22:56;;;;;;;;;;;;;;;;;;5032205;28;20423;-60
2023/03/20 01:25:23;;;;;;;;;;;;;;;;;;5031718;28;20354;-60
2023/03/20 01:27:50;;;;;;;;;;;;;;;;;;5032352;28;19940;-60
2023/03/20 01:30:17;;;;;;;;;;;;;;;;;;5031617;28;19941;-60
2023/03/20 01:32:45;;;;;;;;;;;;;;;;;;5031790;28;19928;-60
2023/03/20 01:35:12;;;;;;;;;;;;;;;;;;5032338;28;20327;-60
2023/03/20 01:37:40;;;;;;;1999.90;999.90;;;;;;;;;;5031045;28;20531;-60
2023/03/20 01:40:11;;;;;;;1999.90;999.90;;;;;;;;;;5031988;28;20470;-60
2023/03/20 01:42:38;;;;;;;;;;;;;;;;;;5031087;28;20443;-60
2023/03/20 01:45:05;;;;;;;;;;;;;;;;;;5045547;28;20445;-60
2023/03/20 01:47:32;;;;;;;;;;;;;;;;;;5031290;28;20919;-60
2023/03/20 01:50:18;;;;;;;1999.90;999.90;;;;;;;;;;5030978;28;20938;-60
2023/03/20 01:52:45;;;;;;;;;;;;;;;;;;5031363;28;20391;-60
2023/03/20 01:55:12;;;;;;;;;;;;;;;;;;5031710;28;20310;-60
2023/03/20 01:57:39;;;;;;;;;;;;;;;;;;5031756;28;19925;-60
2023/03/20 02:00:08;;;;;;;;;;;;;;;;;;5047208;28;19925;-60
2023/03/20 02:02:35;;;;;;;;;;;;;;;;;;5042699;28;20046;-60
2023/03/20 02:05:02;;;;;;;;;;;;;;;;;;5032230;28;19925;-60
2023/03/20 02:07:29;;;;;;;;;;;;;;;;;;5033867;28;19932;-59
2023/03/20 02:09:55;;;;;;;;;;;;;;;;;;5052162;28;19970;-60
2023/03/20 02:12:22;;;;;;;;;;;;;;;;;;5051775;28;19960;-60
2023/03/20 02:14:49;;;;;;;;;;;;;;;;;;5047948;28;19962;-60
2023/03/20 02:17:16;;;;;;;;;;;;;;;;;;5049477;28;19964;-60
2023/03/20 02:19:43;;;;;;;;;;;;;;;;;;5051922;28;19925;-60
2023/03/20 02:22:10;;;;;;;;;;;;;;;;;;5050757;28;20336;-60
2023/03/20 02:24:37;;;;;;;;;;;;;;;;;;5040228;28;19946;-60
2023/03/20 02:27:04;;;;;;;;;;;;;;;;;;5038567;28;19946;-60
2023/03/20 02:29:31;;;;;;;;;;;;;;;;;;5051871;28;20062;-60
2023/03/20 02:31:58;;;;;;;;;;;;;;;;;;5050358;28;19954;-60
2023/03/20 02:34:25;;;;;;;;;;;;;;;;;;5044005;28;20403;-60
2023/03/20 02:36:52;;;;;;;;;;;;;;;;;;5032061;28;19995;-61
2023/03/20 02:39:19;;;;;;;;;;;;;;;;;;5032700;28;19965;-60
2023/03/20 02:41:46;;;;;;;;;;;;;;;;;;5051519;28;20355;-60
2023/03/20 02:44:13;;;;;;;;;;;;;;;;;;5051813;28;19965;-59
2023/03/20 02:46:40;;;;;;;;;;;;;;;;;;5052196;28;20401;-60
2023/03/20 02:49:07;;;;;;;;;;;;;;;;;;5054658;28;19933;-60
2023/03/20 02:51:34;;;;;;;;;;;;;;;;;;5053001;28;20032;-60
2023/03/20 02:54:01;;;;;;;;;;;;;;;;;;5055382;28;19931;-60
2023/03/20 02:56:28;;;;;;;;;;;;;;;;;;5052108;28;20329;-60
2023/03/20 02:58:55;;;;;;;;;;;;;;;;;;5033070;28;19947;-60
2023/03/20 03:01:22;;;;;;;;;;;;;;;;;;5034237;28;25105;-60
2023/03/20 03:03:49;;;;;;;;;;;;;;;;;;5034175;28;20085;-60
2023/03/20 03:06:16;;;;;;;;;;;;;;;;;;5044350;28;19934;-60
2023/03/20 03:08:43;;;;;;;;;;;;;;;;;;5035459;28;20006;-60
2023/03/20 03:11:10;;;;;;;;;;;;;;;;;;5047814;28;20389;-60
2023/03/20 03:13:37;;;;;;;;;;;;;;;;;;5054585;28;19947;-60
2023/03/20 03:16:04;;;;;;;;;;;;;;;;;;5052489;28;20080;-61
2023/03/20 03:18:31;;;;;;;;;;;;;;;;;;5047113;28;20292;-60
2023/03/20 03:20:58;;;;;;;;;;;;;;;;;;5045529;28;20359;-60
2023/03/20 03:23:25;;;;;;;;;;;;;;;;;;5027048;28;19939;-60
2023/03/20 03:25:52;;;;;;;;;;;;;;;;;;5028023;28;25085;-60
2023/03/20 03:28:20;;;;;;;;;;;;;;;;;;5027987;28;25047;-60
2023/03/20 03:30:47;;;;;;;;;;;;;;;;;;5026903;28;20302;-59
2023/03/20 03:33:15;;;;;;;;;;;;;;;;;;5026910;28;20396;-59
2023/03/20 03:35:42;;;;;;;;;;;;;;;;;;5028773;28;25139;-60
2023/03/20 03:38:09;;;;;;;;;;;;;;;;;;5038432;28;19943;-59
2023/03/20 03:40:36;;;;;;;;;;;;;;;;;;5028244;28;19969;-60
2023/03/20 03:43:03;;;;;;;;;;;;;;;;;;5032937;28;19932;-60
2023/03/20 03:45:30;;;;;;;;;;;;;;;;;;5030503;28;19944;-60
2023/03/20 03:47:57;;;;;;;;;;;;;;;;;;5032287;28;19987;-60
2023/03/20 03:50:25;;;;;;;;;;;;;;;;;;5034169;28;19921;-60
2023/03/20 03:52:52;;;;;;;;;;;;;;;;;;5033593;28;19975;-60
2023/03/20 03:55:19;;;;;;;;;;;;;;;;;;5032813;28;20022;-60
2023/03/20 03:57:46;;;;;;;;;;;;;;;;;;5028930;28;19962;-60
2023/03/20 04:00:13;;;;;;;;;;;;;;;;;;5029079;28;19942;-60
2023/03/20 04:02:40;;;;;;;;;;;;;;;;;;5032484;28;19942;-60
2023/03/20 04:05:07;;;;;;;;;;;;;;;;;;5049319;28;20307;-60
2023/03/20 04:07:35;;;;;;;;;;;;;;;;;;5049667;28;19920;-60
2023/03/20 04:10:02;;;;;;;;;;;;;;;;;;5054078;28;19963;-60
2023/03/20 04:12:29;;;;;;;;;;;;;;;;;;5053202;28;19924;-60
2023/03/20 04:14:56;;;;;;;;;;;;;;;;;;5053324;28;19927;-59
2023/03/20 04:17:23;;;;;;;;;;;;;;;;;;5053909;28;19943;-61
2023/03/20 04:19:50;;;;;;;;;;;;;;;;;;5053721;28;19921;-60
2023/03/20 04:22:17;;;;;;;;;;;;;;;;;;5053319;28;19927;-60
2023/03/20 04:24:44;;;;;;;;;;;;;;;;;;5052892;28;19921;-60
2023/03/20 04:27:11;;;;;;;;;;;;;;;;;;5051117;28;19920;-60
2023/03/20 04:29:39;;;;;;;;;;;;;;;;;;5041487;28;20019;-60
2023/03/20 04:32:06;;;;;;;;;;;;;;;;;;5033276;28;20289;-60
2023/03/20 04:34:33;;;;;;;;;;;;;;;;;;5032926;28;19928;-60
2023/03/20 04:37:00;;;;;;;;;;;;;;;;;;5032875;28;19925;-59
2023/03/20 04:39:27;;;;;;;;;;;;;;;;;;5046612;28;20208;-60
2023/03/20 04:41:54;;;;;;;;;;;;;;;;;;5040467;28;20117;-60
2023/03/20 04:44:21;;;;;;;;;;;;;;;;;;5033556;28;20027;-60
2023/03/20 04:46:48;;;;;;;;;;;;;;;;;;5027046;28;25074;-60
2023/03/20 04:49:15;;;;;;;;;;;;;;;;;;5031595;28;19932;-60
2023/03/20 04:51:42;;;;;;;;;;;;;;;;;;5032279;28;19925;-60
2023/03/20 04:54:09;;;;;;;;;;;;;;;;;;5029296;28;20366;-60
2023/03/20 04:56:36;;;;;;;;;;;;;;;;;;5033378;28;25125;-60
2023/03/20 04:59:03;;;;;;;;;;;;;;;;;;5037714;28;25147;-60
2023/03/20 05:01:30;;;;;;;;;;;;;;;;;;5031025;28;20085;-60
2023/03/20 05:03:59;;;;;;;;;;;;;;;;;;5059874;22;19920;-62
2023/03/20 05:06:26;;;;;;;;;;;;;;;;;;5048379;28;19920;-62
2023/03/20 05:08:53;;;;;;;;;;;;;;;;;;5052028;28;19932;-62
2023/03/20 05:11:20;;;;;;;;;;;;;;;;;;5042829;28;19920;-62
2023/03/20 05:13:47;;;;;;;;;;;;;;;;;;5032225;28;19925;-62
2023/03/20 05:16:14;;;;;;;;;;;;;;;;;;5037111;28;19920;-62
2023/03/20 05:18:41;;;;;;;;;;;;;;;;;;5042037;28;20445;-62
2023/03/20 05:21:08;;;;;;;;;;;;;;;;;;5032570;28;19928;-62
2023/03/20 05:23:34;;;;;;;;;;;;;;;;;;5032366;28;19928;-62
2023/03/20 05:26:01;;;;;;;;;;;;;;;;;;5032192;28;19948;-62
2023/03/20 05:28:28;;;;;;;;;;;;;;;;;;5032264;28;19921;-62
2023/03/20 05:30:55;;;;;;;;;;;;;;;;;;5047872;28;19921;-62
2023/03/20 05:33:22;;;;;;;;;;;;;;;;;;5052101;28;19920;-62
2023/03/20 05:35:49;;;;;;;;;;;;;;;;;;5052210;28;20302;-62
2023/03/20 05:38:16;;;;;;;;;;;;;;;;;;5052173;28;19928;-62
2023/03/20 05:40:43;;;;;;;;;;;;;;;;;;5052290;28;20382;-62
2023/03/20 05:43:10;;;;;;;;;;;;;;;;;;5052076;28;19927;-62
2023/03/20 05:45:37;;;;;;;;;;;;;;;;;;5049570;28;19927;-62
2023/03/20 05:48:04;;;;;;;;;;;;;;;;;;5052255;28;19920;-62
2023/03/20 05:50:31;;;;;;;;;;;;;;;;;;5051096;28;20000;-62
2023/03/20 05:52:58;;;;;;;;;;;;;;;;;;5050693;28;19928;-62
2023/03/20 05:55:24;;;;;;;;;;;;;;;;;;5052240;28;19927;-62
2023/03/20 05:57:51;;;;;;;;;;;;;;;;;;5052230;28;20309;-62
2023/03/20 06:00:19;;;;;;;;;;;;;;;;;;5049752;28;19920;-62
2023/03/20 06:02:47;;;;;;;;;;;;;;;;;;5041233;28;20378;-62
2023/03/20 06:05:13;;;;;;;;;;;;;;;;;;5032437;28;19927;-62
2023/03/20 06:07:40;;;;;;;;;;;;;;;;;;5042109;28;19921;-62
2023/03/20 06:10:07;;;;;;;;;;;;;;;;;;5052180;28;19928;-62
2023/03/20 06:12:34;;;;;;;;;;;;;;;;;;5050191;28;20390;-62
2023/03/20 06:15:01;;;;;;;;;;;;;;;;;;5052049;28;19931;-62
2023/03/20 06:17:28;;;;;;;;;;;;;;;;;;5049729;28;20431;-63
2023/03/20 06:19:55;;;;;;;;;;;;;;;;;;5042704;28;19992;-62
2023/03/20 06:22:22;;;;;;;;;;;;;;;;;;5035631;28;20388;-62
2023/03/20 06:24:49;;;;;;;;;;;;;;;;;;5039555;28;19927;-61
2023/03/20 06:27:16;;;;;;;;;;;;;;;;;;5053154;28;20010;-61
2023/03/20 06:29:43;;;;;;;;;;;;;;;;;;5056394;28;19928;-61
2023/03/20 06:32:13;;;;;;;;;;;;;;;;;;5056478;28;19920;-61
2023/03/20 06:34:40;;;;;;;;;;;;;;;;;;5052106;28;19968;-60
2023/03/20 06:37:07;;;;;;;;;;;;;;;;;;5048026;28;19928;-60
2023/03/20 06:39:34;;;;;;;;;;;;;;;;;;5043034;28;20298;-61
2023/03/20 06:42:01;;;;;;;;;;;;;;;;;;5056696;28;19932;-61
2023/03/20 06:44:27;;;;;;;;;;;;;;;;;;5061771;28;20126;-60
2023/03/20 06:46:54;;;;;;;;;;;;;;;;;;5057637;28;20555;-62
2023/03/20 06:49:21;;;;;;;;;;;;;;;;;;5054795;28;25180;-63
2023/03/20 06:51:49;;;;;;;;;;;;;;;;;;5053192;28;25060;-61
2023/03/20 06:54:16;;;;;;;;;;;;;;;;;;5055188;28;25114;-62
2023/03/20 06:56:42;;;;;;;;;;;;;;;;;;5052103;28;25067;-61
2023/03/20 06:59:09;;;;;;;;;;;;;;;;;;5053890;28;20048;-62
2023/03/20 07:01:36;;;;;;;;;;;;;;;;;;5052586;28;25071;-62
2023/03/20 07:04:03;;;;;;;;;;;;;;;;;;5052761;28;20570;-62
2023/03/20 07:06:31;;;;;;;;;;;;;;;;;;5053668;28;20041;-62
2023/03/20 07:08:57;;;;;;;;;;;;;;;;;;5053973;28;20039;-62
2023/03/20 07:11:24;;;;;;;;;;;;;;;;;;5052667;28;25059;-62
2023/03/20 07:13:51;;;;;;;;;;;;;;;;;;5051993;28;20049;-61
2023/03/20 07:16:18;;;;;;;;;;;;;;;;;;5049594;28;20018;-61
2023/03/20 07:18:45;;;;;;;;;;;;;;;;;;5054437;28;20043;-62
2023/03/20 07:21:12;;;;;;;;;;;;;;;;;;5049489;28;20000;-61
2023/03/20 07:23:39;;;;;;;;;;;;;;;;;;5038629;28;19994;-60
2023/03/20 07:26:06;;;;;;;;;;;;;;;;;;5053992;28;20906;-61
2023/03/20 07:28:33;;;;;;;;;;;;;;;;;;5053558;28;19974;-60
2023/03/20 07:31:00;;;;;;;;;;;;;;;;;;5052882;28;19982;-61
2023/03/20 07:33:27;;;;;;;;;;;;;;;;;;5053224;28;20009;-60
2023/03/20 07:35:54;;;;;;;;;;;;;;;;;;5053187;28;19979;-61
2023/03/20 07:38:20;;;;;;;;;;;;;;;;;;5051686;28;19977;-60
2023/03/20 07:40:48;;;;;;;;;;;;;;;;;;5054245;28;20451;-60
2023/03/20 07:43:15;;;;;;;;;;;;;;;;;;5040575;28;20047;-61
2023/03/20 07:45:42;;;;;;;;;;;;;;;;;;5047718;28;19973;-61
2023/03/20 07:48:08;;;;;;;;;;;;;;;;;;5052127;28;19965;-60
2023/03/20 07:50:35;;;;;;;;;;;;;;;;;;5051654;28;19957;-62
2023/03/20 07:53:02;;;;;;;;;;;;;;;;;;5049961;28;19979;-62
2023/03/20 07:55:29;;;;;;;;;;;;;;;;;;5052677;28;19953;-62
2023/03/20 07:57:56;;;;;;;;;;;;;;;;;;5053777;28;19953;-62
2023/03/20 08:00:23;;;;;;;;;;;;;;;;;;5054084;28;19977;-61
2023/03/20 08:02:50;;;;;;;;;;;;;;;;;;5039139;28;19974;-61
2023/03/20 08:05:17;;;;;;;;;;;;;;;;;;5044935;28;19960;-61
2023/03/20 08:07:44;;;;;;;;;;;;;;;;;;5053790;28;19954;-61
2023/03/20 08:10:11;;;;;;;;;;;;;;;;;;5042333;28;19958;-61
2023/03/20 08:12:38;;;;;;;;;;;;;;;;;;5044324;28;20439;-61
2023/03/20 08:15:05;;;;;;;;;;;;;;;;;;5051086;28;19951;-61
2023/03/20 08:17:32;;;;;;;;;;;;;;;;;;5050965;28;20316;-61
2023/03/20 08:19:59;;;;;;;;;;;;;;;;;;5051404;28;19969;-61
2023/03/20 08:22:26;;;;;;;;;;;;;;;;;;5048595;28;20028;-61
2023/03/20 08:24:53;;;;;;;;;;;;;;;;;;5050733;28;20513;-61
2023/03/20 08:27:20;;;;;;;;;;;;;;;;;;5052978;28;20019;-60
2023/03/20 08:29:47;;;;;;;;;;;;;;;;;;5052117;28;19932;-61
2023/03/20 08:32:14;;;;;;;;;;;;;;;;;;5051780;28;19936;-61
2023/03/20 08:34:40;;;;;;;;;;;;;;;;;;5052710;28;19936;-61
2023/03/20 08:37:08;;;;;;;;;;;;;;;;;;5053256;28;19940;-61
2023/03/20 08:39:35;;;;;;;;;;;;;;;;;;5051550;28;19932;-61
2023/03/20 08:42:02;;;;;;;;;;;;;;;;;;5050259;28;19947;-61
2023/03/20 08:44:29;;;;;;;;;;;;;;;;;;5051610;28;19955;-60
2023/03/20 08:46:56;;;;;;;;;;;;;;;;;;5045655;28;19932;-61
2023/03/20 08:49:23;;;;;;;;;;;;;;;;;;5051662;28;19940;-61
2023/03/20 08:51:50;;;;;;;;;;;;;;;;;;5052685;28;19936;-60
2023/03/20 08:54:17;;;;;;;;;;;;;;;;;;5051926;28;20433;-61
2023/03/20 08:56:44;;;;;;;;;;;;;;;;;;5052602;28;19936;-61
2023/03/20 08:59:11;;;;;;;;;;;;;;;;;;5049759;28;20394;-61
2023/03/20 09:01:38;;;;;;;;;;;;;;;;;;5052423;28;19952;-61
2023/03/20 09:04:05;;;;;;;;;;;;;;;;;;5051293;28;20290;-61
2023/03/20 09:06:31;;;;;;;;;;;;;;;;;;5052388;28;19947;-61
2023/03/20 09:08:58;;;;;;;;;;;;;;;;;;5051839;28;20302;-60
2023/03/20 09:11:25;;;;;;;;;;;;;;;;;;5051084;28;19940;-62
2023/03/20 09:13:52;;;;;;;;;;;;;;;;;;5045456;28;20006;-62
2023/03/20 09:16:19;;;;;;;;;;;;;;;;;;5050067;28;19932;-62
2023/03/20 09:18:46;;;;;;;;;;;;;;;;;;5052256;28;20409;-62
2023/03/20 09:21:13;;;;;;;;;;;;;;;;;;5048764;28;19948;-62
2023/03/20 09:23:40;;;;;;;;;;;;;;;;;;5052263;28;19959;-62
2023/03/20 09:26:07;;;;;;;;;;;;;;;;;;5051286;28;19936;-62
2023/03/20 09:28:34;;;;;;;;;;;;;;;;;;5051984;28;19931;-62
2023/03/20 09:31:01;;;;;;;;;;;;;;;;;;5040610;28;20314;-62
2023/03/20 09:33:28;;;;;;;;;;;;;;;;;;5051909;28;20334;-63
2023/03/20 09:35:55;;;;;;;;;;;;;;;;;;5051264;28;19947;-62
2023/03/20 09:38:23;;;;;;;;;;;;;;;;;;5042692;28;19935;-62
2023/03/20 09:40:50;;;;;;;;;;;;;;;;;;5042812;28;19925;-62
2023/03/20 09:43:17;;;;;;;;;;;;;;;;;;5035838;28;19978;-62
2023/03/20 09:45:44;;;;;;;;;;;;;;;;;;5051081;28;19925;-62
2023/03/20 09:48:11;;;;;;;;;;;;;;;;;;5049262;28;19929;-62
2023/03/20 09:50:38;;;;;;;;;;;;;;;;;;5050749;28;19924;-62
2023/03/20 09:53:06;;;;;;;;;;;;;;;;;;5038220;28;19925;-62
2023/03/20 09:55:33;;;;;;;;;;;;;;;;;;5040594;28;20511;-62
2023/03/20 09:58:00;;;;;;;;;;;;;;;;;;5041974;28;19936;-62
2023/03/20 10:00:27;;;;;;;;;;;;;;;;;;5031828;28;20047;-61
2023/03/20 10:02:54;;;;;;;;;;;;;;;;;;5043736;28;20034;-62
2023/03/20 10:05:21;;;;;;;;;;;;;;;;;;5049528;28;20406;-62
2023/03/20 10:07:48;;;;;;;;;;;;;;;;;;5046356;28;19947;-61
2023/03/20 10:10:15;;;;;;;;;;;;;;;;;;5045697;28;20413;-62
2023/03/20 10:12:42;;;;;;;;;;;;;;;;;;5045438;28;19987;-62
2023/03/20 10:15:09;;;;;;;;;;;;;;;;;;5048033;28;19928;-62
2023/03/20 10:17:36;;;;;;;;;;;;;;;;;;5046602;28;19931;-61
2023/03/20 10:20:03;;;;;;;;;;;;;;;;;;5045255;28;19925;-62
2023/03/20 10:22:29;;;;;;;;;;;;;;;;;;5047820;28;19936;-62
2023/03/20 10:24:56;;;;;;;;;;;;;;;;;;5051517;28;19927;-62
2023/03/20 10:27:23;;;;;;;;;;;;;;;;;;5048557;28;19928;-61
2023/03/20 10:29:51;;;;;;;;;;;;;;;;;;5049586;28;19928;-60
2023/03/20 10:32:21;;;;;;;1999.90;999.90;;;;;;;;;;5047153;28;19953;-61
2023/03/20 10:34:48;;;;;;;;;;;;;;;;;;5043789;28;20415;-61
2023/03/20 10:37:15;;;;;;;;;;;;;;;;;;5050318;28;19928;-61
2023/03/20 10:39:45;;;;;;;;;;;;;;;;;;5048109;28;19925;-61
2023/03/20 10:42:12;;;;;;;;;;;;;;;;;;5049208;28;19976;-62
2023/03/20 10:44:39;;;;;;;;;;;;;;;;;;5047247;28;20011;-62
2023/03/20 10:47:06;;;;;;;;;;;;;;;;;;5045234;28;19921;-61
2023/03/20 10:49:34;;;;;;;;;;;;;;;;;;5048937;28;20059;-61
2023/03/20 10:52:00;;;;;;;;;;;;;;;;;;5050773;28;20187;-62
2023/03/20 10:54:27;;;;;;;;;;;;;;;;;;5049010;28;19921;-62
2023/03/20 10:56:57;;;;;;;;;;;;;;;;;;5043797;28;19928;-62
2023/03/20 10:59:24;;;;;;;;;;;;;;;;;;5049137;28;19967;-62
2023/03/20 11:01:51;;;;;;;;;;;;;;;;;;5047877;28;20275;-62
2023/03/20 11:04:18;;;;;;;;;;;;;;;;;;5038280;28;19920;-62
2023/03/20 11:06:45;;;;;;;;;;;;;;;;;;5050606;28;19943;-62
2023/03/20 11:09:12;;;;;;;;;;;;;;;;;;5047604;28;20496;-62
2023/03/20 11:11:43;;;;;;;;;;;;;;;;;;5047886;28;19932;-62
2023/03/20 11:14:10;;;;;;;;;;;;;;;;;;5049599;28;19947;-62
2023/03/20 11:16:37;;;;;;;;;;;;;;;;;;5051530;28;19921;-62
2023/03/20 11:19:04;;;;;;;;;;;;;;;;;;5050696;28;20023;-62
2023/03/20 11:21:31;;;;;;;;;;;;;;;;;;5050930;28;20141;-62
2023/03/20 11:23:58;;;;;;;;;;;;;;;;;;5053713;28;19921;-62
2023/03/20 11:26:25;;;;;;;;;;;;;;;;;;5052366;28;19975;-62
2023/03/20 11:28:52;;;;;;;;;;;;;;;;;;5049655;28;20179;-62
2023/03/20 11:31:19;;;;;;;;;;;;;;;;;;5051864;28;19921;-61
2023/03/20 11:33:46;;;;;;;;;;;;;;;;;;5052490;28;20401;-61
2023/03/20 11:36:12;;;;;;;;;;;;;;;;;;5049778;28;19925;-61
2023/03/20 11:38:39;;;;;;;;;;;;;;;;;;5051116;28;19921;-61
2023/03/20 11:41:06;;;;;;;;;;;;;;;;;;5053620;28;20038;-62
2023/03/20 11:43:33;;;;;;;;;;;;;;;;;;5051549;28;19927;-62
2023/03/20 11:46:03;;;;;;;;;;;;;;;;;;5053300;28;20279;-62
2023/03/20 11:48:29;;;;;;;;;;;;;;;;;;5052367;28;20011;-62
2023/03/20 11:50:56;;;;;;;;;;;;;;;;;;5044833;28;20898;-68
2023/03/20 11:53:23;;;;;;;;;;;;;;;;;;5045890;28;19928;-61
2023/03/20 11:55:50;;;;;;;;;;;;;;;;;;5051282;28;20305;-65
2023/03/20 11:58:17;;;;;;;;;;;;;;;;;;5050029;28;19936;-61
2023/03/20 12:00:44;;;;;;;;;;;;;;;;;;5048679;28;20657;-62
2023/03/20 12:03:11;;;;;;;;;;;;;;;;;;5041993;28;20172;-68
2023/03/20 12:05:38;;;;;;;;;;;;;;;;;;5037608;28;19921;-67
2023/03/20 12:08:05;;;;;;;;;;;;;;;;;;5037445;28;20172;-64
2023/03/20 12:10:32;;;;;;;;;;;;;;;;;;5036425;28;19929;-66
2023/03/20 12:12:59;;;;;;;;;;;;;;;;;;5035664;28;19964;-67
2023/03/20 12:15:26;;;;;;;;;;;;;;;;;;5041755;28;19940;-66
2023/03/20 12:17:53;;;;;;;;;;;;;;;;;;5048575;28;19924;-68
2023/03/20 12:20:20;;;;;;;;;;;;;;;;;;5036101;28;19929;-66
2023/03/20 12:22:47;;;;;;;;;;;;;;;;;;5033145;28;19964;-65
2023/03/20 12:25:15;;;;;;;;;;;;;;;;;;5045531;28;19943;-66
2023/03/20 12:27:44;;;;;;;;;;;;;;;;;;5049904;28;19924;-66
2023/03/20 12:30:11;;;;;;;;;;;;;;;;;;5049672;28;19920;-66
2023/03/20 12:32:37;;;;;;;;;;;;;;;;;;5050632;28;19920;-65
2023/03/20 12:35:04;;;;;;;;;;;;;;;;;;5051952;28;20382;-65
2023/03/20 12:37:33;;;;;;;;;;;;;;;;;;5050519;28;19921;-66
2023/03/20 12:40:00;;;;;;;;;;;;;;;;;;5041089;28;19920;-65
2023/03/20 12:42:27;;;;;;;;;;;;;;;;;;5050126;28;19943;-65
2023/03/20 12:44:54;;;;;;;;;;;;;;;;;;5046630;28;19931;-65
2023/03/20 12:47:21;;;;;;;;;;;;;;;;;;5050018;28;19974;-66
2023/03/20 12:49:48;;;;;;;;;;;;;;;;;;5050033;28;19920;-65
2023/03/20 12:52:16;;;;;;;;;;;;;;;;;;5050358;28;20371;-65
2023/03/20 12:54:42;;;;;;;;;;;;;;;;;;5046966;28;19927;-66
2023/03/20 12:57:09;;;;;;;;;;;;;;;;;;5044015;28;20294;-65
2023/03/20 12:59:36;;;;;;;;;;;;;;;;;;5042925;28;19931;-65
2023/03/20 13:02:03;;;;;;;;;;;;;;;;;;5047756;28;19928;-67
2023/03/20 13:04:30;;;;;;;;;;;;;;;;;;5005422;28;1039955;-67
2023/03/20 13:06:57;;;;;;;;;;;;;;;;;;5038966;28;19928;-68
2023/03/20 13:09:25;;;;;;;;;;;;;;;;;;5045613;28;19925;-68
2023/03/20 13:11:52;;;;;;;;;;;;;;;;;;5040576;28;19920;-63
2023/03/20 13:14:19;;;;;;;;;;;;;;;;;;5065790;28;19932;-63
2023/03/20 13:16:46;;;;;;;;;;;;;;;;;;5048186;28;20272;-64
2023/03/20 13:19:12;;;;;;;;;;;;;;;;;;5051814;28;19920;-64
2023/03/20 13:21:39;;;;;;;;;;;;;;;;;;5048443;28;20370;-64
2023/03/20 13:24:06;;;;;;;;;;;;;;;;;;5048948;28;19921;-64
2023/03/20 13:26:33;;;;;;;;;;;;;;;;;;5049088;28;19921;-64
2023/03/20 13:29:00;;;;;;;;;;;;;;;;;;5050131;28;19928;-64
2023/03/20 13:31:27;;;;;;;;;;;;;;;;;;5050703;28;19928;-63
2023/03/20 13:33:54;;;;;;;;;;;;;;;;;;5052379;28;19952;-63
2023/03/20 13:36:23;;;;;;;;;;;;;;;;;;5050743;28;20382;-63
2023/03/20 13:38:50;;;;;;;;;;;;;;;;;;5051912;28;19921;-63
2023/03/20 13:41:16;;;;;;;;;;;;;;;;;;5050990;28;20298;-63
2023/03/20 13:43:43;;;;;;;;;;;;;;;;;;5052330;28;19925;-63
2023/03/20 13:46:10;;;;;;;;;;;;;;;;;;5045027;28;20286;-70
2023/03/20 13:48:37;;;;;;;;;;;;;;;;;;5052254;28;20003;-70
2023/03/20 13:51:15;;;;;;;1999.90;999.90;;;;;;;;;;5045530;28;19925;-69
2023/03/20 13:53:42;;;;;;;;;;;;;;;;;;5051241;28;20218;-70
2023/03/20 13:56:09;;;;;;;;;;;;;;;;;;5048580;28;19931;-77
2023/03/20 13:58:36;;;;;;;;;;;;;;;;;;5047065;28;19931;-70
2023/03/20 14:01:03;;;;;;;;;;;;;;;;;;5050133;28;20398;-70
2023/03/20 14:03:29;;;;;;;;;;;;;;;;;;5047282;28;20433;-70
2023/03/20 14:05:56;;;;;;;;;;;;;;;;;;5049969;28;19921;-70
2023/03/20 14:08:23;;;;;;;;;;;;;;;;;;5046819;28;20701;-70
2023/03/20 14:10:50;;;;;;;;;;;;;;;;;;5044331;28;19925;-70
2023/03/20 14:13:17;;;;;;;;;;;;;;;;;;5051229;28;19932;-70
2023/03/20 14:15:52;;;;;;;1999.90;999.90;;;;;;;;;;5050985;28;20417;-70
2023/03/20 14:18:19;;;;;;;;;;;;;;;;;;5049795;28;20127;-70
2023/03/20 14:20:52;;;;;;;1999.90;999.90;;;;;;;;;;5050048;28;20208;-70
2023/03/20 14:23:21;;;;;;;1999.90;999.90;;;;;;;;;;5047961;28;20477;-70
2023/03/20 14:25:49;;;;;;;1999.90;999.90;;;;;;;;;;5050915;28;20191;-70
2023/03/20 14:28:27;;;;;;;1999.90;999.90;;;;;;;;;;5049535;28;20202;-70
2023/03/20 14:30:54;;;;;;;;;;;;;;;;;;5053839;28;20444;-69
2023/03/20 14:33:27;;;;;;;1999.90;999.90;;;;;;;;;;5059134;28;20454;-69
2023/03/20 14:36:09;;;;;;;1999.90;999.90;;;;;;;;;;5029924;28;20443;-69
2023/03/20 14:38:39;;;;;;;1999.90;999.90;;;;;;;;;;5030500;28;20453;-68
2023/03/20 14:41:12;;;;;;;1999.90;999.90;;;;;;;;;;5043644;28;20451;-68
2023/03/20 14:43:44;;;;;;;1999.90;999.90;;;;;;;;;;5047620;28;20450;-69
2023/03/20 14:46:17;;;;;;;1999.90;999.90;;;;;;;;;;5053524;28;20442;-68
2023/03/20 14:48:44;;;;;;;;;;;;;;;;;;5072608;28;20429;-68
2023/03/20 14:51:34;;;;;;;1999.90;999.90;;;;;;;;;;5034897;28;19925;-69
2023/03/20 14:54:01;;;;;;;;;;;;;;;;;;5053077;28;20433;-69
2023/03/20 14:56:30;;;;;;;1999.90;999.90;;;;;;;;;;5052560;28;20452;-68
2023/03/20 14:58:58;;;;;;;1999.90;999.90;;;;;;;;;;5054032;28;20433;-65
2023/03/20 15:01:27;;;;;;;1999.90;999.90;;;;;;;;;;5053605;28;20442;-62
2023/03/20 15:03:54;;;;;;;;;;;;;;;;;;5051756;28;20839;-66
2023/03/20 15:06:22;;;;;;;1999.90;999.90;;;;;;;;;;5050549;28;19921;-64
2023/03/20 15:08:49;;;;;;;;;;;;;;;;;;5040770;28;20917;-64
2023/03/20 15:11:18;;;;;;;1999.90;999.90;;;;;;;;;;5052879;28;21512;-65
2023/03/20 15:13:45;;;;;;;;;;;;;;;;;;5049388;28;20075;-65
2023/03/20 15:16:12;;;;;;;;;;;;;;;;;;5053459;28;20423;-64
2023/03/20 15:18:39;;;;;;;;;;;;;;;;;;5054749;28;20347;-65
2023/03/20 15:21:06;;;;;;;;;;;;;;;;;;5037692;28;19929;-65
2023/03/20 15:23:34;;;;;;;1999.90;999.90;;;;;;;;;;5044748;28;20439;-65
2023/03/20 15:26:01;;;;;;;1999.90;999.90;;;;;;;;;;5043090;28;20443;-65
2023/03/20 15:28:31;;;;;;;1999.90;999.90;;;;;;;;;;5053083;28;20812;-66
2023/03/20 15:30:58;;;;;;;;;;;;;;;;;;5052487;28;20454;-64
2023/03/20 15:33:27;;;;;;;1999.90;999.90;;;;;;;;;;5050147;28;20927;-65
2023/03/20 15:35:54;;;;;;;1999.90;999.90;;;;;;;;;;5052449;28;20459;-65
2023/03/20 15:38:21;;;;;;;;;;;;;;;;;;5044167;28;20442;-64
2023/03/20 15:40:48;;;;;;;;;;;;;;;;;;5054301;28;20758;-63
2023/03/20 15:43:17;;;;;;;1999.90;999.90;;;;;;;;;;5052201;28;19928;-63
2023/03/20 15:45:46;;;;;;;1999.90;999.90;;;;;;;;;;5047824;28;20508;-63
2023/03/20 15:48:13;;;;;;;;;;;;;;;;;;5053750;28;20416;-65
2023/03/20 15:50:40;;;;;;;;;;;;;;;;;;5042698;28;19935;-65
2023/03/20 15:53:09;;;;;;;;;;;;;;;;;;5048804;28;20444;-65
2023/03/20 15:55:36;;;;;;;;;;;;;;;;;;5048429;28;20452;-64
2023/03/20 15:58:03;;;;;;;;;;;;;;;;;;5052100;28;20279;-65
2023/03/20 16:00:30;;;;;;;;;;;;;;;;;;5048736;28;19928;-64
2023/03/20 16:02:57;;;;;;;;;;;;;;;;;;5050483;28;20321;-65
2023/03/20 16:05:24;;;;;;;;;;;;;;;;;;5053225;28;19963;-65
2023/03/20 16:07:51;;;;;;;;;;;;;;;;;;5050355;28;19920;-65
2023/03/20 16:10:18;;;;;;;;;;;;;;;;;;5051934;28;19920;-65
2023/03/20 16:12:45;;;;;;;;;;;;;;;;;;5052570;28;20473;-65
2023/03/20 16:15:12;;;;;;;;;;;;;;;;;;5050164;28;20443;-65
2023/03/20 16:17:39;;;;;;;;;;;;;;;;;;5052631;28;20446;-64
2023/03/20 16:20:06;;;;;;;;;;;;;;;;;;5052965;28;20348;-65
2023/03/20 16:22:33;;;;;;;;;;;;;;;;;;5052231;28;19920;-65
2023/03/20 16:24:59;;;;;;;;;;;;;;;;;;5049395;28;20433;-65
2023/03/20 16:27:26;;;;;;;;;;;;;;;;;;5052153;28;20443;-65
2023/03/20 16:29:53;;;;;;;;;;;;;;;;;;5051751;28;20417;-65